createdAt,value
2017-04-24T00:00:10.506Z,9.87
2017-04-24T00:00:51.016Z,9.86
2017-04-24T00:01:31.536Z,9.89
2017-04-24T00:02:12.054Z,9.9
2017-04-24T00:02:52.574Z,9.83
2017-04-24T00:03:33.100Z,9.87
2017-04-24T00:04:13.621Z,9.79
2017-04-24T00:04:54.190Z,9.96
2017-04-24T00:05:34.712Z,9.86
2017-04-24T00:06:15.237Z,9.81
2017-04-24T00:06:55.756Z,9.76
2017-04-24T00:07:36.306Z,9.78
2017-04-24T00:08:16.824Z,9.84
2017-04-24T00:08:57.347Z,9.72
2017-04-24T00:09:37.882Z,9.74
2017-04-24T00:10:18.400Z,9.84
2017-04-24T00:10:58.921Z,9.78
2017-04-24T00:11:39.433Z,9.74
2017-04-24T00:12:19.954Z,9.71
2017-04-24T00:13:00.472Z,9.72
2017-04-24T00:13:40.992Z,9.83
2017-04-24T00:14:21.501Z,9.78
2017-04-24T00:15:02.045Z,9.78
2017-04-24T00:15:42.607Z,9.79
2017-04-24T00:16:23.118Z,9.78
2017-04-24T00:17:03.630Z,9.79
2017-04-24T00:17:44.134Z,9.76
2017-04-24T00:18:24.637Z,9.78
2017-04-24T00:19:05.163Z,9.76
2017-04-24T00:19:45.680Z,9.76
2017-04-24T00:20:26.208Z,9.83
2017-04-24T00:21:06.728Z,9.75
2017-04-24T00:21:47.255Z,9.76
2017-04-24T00:22:27.769Z,9.71
2017-04-24T00:23:08.289Z,9.81
2017-04-24T00:23:48.804Z,9.76
2017-04-24T00:24:29.320Z,9.68
2017-04-24T00:25:09.838Z,9.72
2017-04-24T00:25:50.366Z,9.65
2017-04-24T00:26:30.874Z,9.75
2017-04-24T00:27:11.388Z,9.72
2017-04-24T00:27:51.901Z,9.69
2017-04-24T00:28:32.433Z,9.72
2017-04-24T00:29:12.939Z,9.72
2017-04-24T00:29:53.456Z,9.66
2017-04-24T00:30:33.974Z,9.66
2017-04-24T00:31:14.485Z,9.72
2017-04-24T00:31:55.001Z,9.61
2017-04-24T00:32:35.517Z,9.58
2017-04-24T00:33:16.042Z,9.64
2017-04-24T00:33:56.571Z,9.64
2017-04-24T00:34:37.089Z,9.68
2017-04-24T00:35:17.606Z,9.69
2017-04-24T00:35:58.129Z,9.71
2017-04-24T00:36:38.655Z,9.72
2017-04-24T00:37:19.157Z,9.6
2017-04-24T00:37:59.680Z,9.58
2017-04-24T00:38:40.217Z,9.65
2017-04-24T00:39:20.732Z,9.56
2017-04-24T00:40:01.255Z,9.6
2017-04-24T00:40:41.765Z,9.6
2017-04-24T00:41:22.276Z,9.64
2017-04-24T00:42:02.806Z,9.64
2017-04-24T00:42:43.323Z,9.68
2017-04-24T00:43:23.838Z,9.64
2017-04-24T00:44:04.362Z,9.6
2017-04-24T00:44:44.876Z,9.65
2017-04-24T00:45:25.400Z,9.64
2017-04-24T00:46:05.920Z,9.64
2017-04-24T00:46:46.439Z,9.57
2017-04-24T00:47:26.956Z,9.57
2017-04-24T00:48:07.471Z,9.57
2017-04-24T00:48:47.994Z,9.53
2017-04-24T00:49:28.510Z,9.53
2017-04-24T00:50:09.030Z,9.53
2017-04-24T00:50:49.553Z,9.54
2017-04-24T00:51:30.070Z,9.53
2017-04-24T00:52:10.588Z,9.51
2017-04-24T00:52:51.106Z,9.5
2017-04-24T00:53:31.620Z,9.48
2017-04-24T00:54:12.145Z,9.53
2017-04-24T00:54:52.658Z,9.5
2017-04-24T00:55:33.181Z,9.5
2017-04-24T00:56:13.697Z,9.54
2017-04-24T00:56:54.223Z,9.53
2017-04-24T00:57:34.737Z,9.56
2017-04-24T00:58:15.262Z,9.54
2017-04-24T00:58:55.780Z,9.48
2017-04-24T00:59:36.291Z,9.36
2017-04-24T01:00:16.812Z,9.39
2017-04-24T01:00:57.338Z,9.38
2017-04-24T01:01:37.850Z,9.39
2017-04-24T01:02:18.360Z,9.36
2017-04-24T01:02:58.883Z,9.38
2017-04-24T01:03:39.397Z,9.38
2017-04-24T01:04:19.915Z,9.36
2017-04-24T01:05:00.457Z,9.28
2017-04-24T01:05:40.953Z,9.36
2017-04-24T01:06:21.481Z,9.39
2017-04-24T01:07:02.002Z,9.38
2017-04-24T01:07:42.521Z,9.32
2017-04-24T01:08:23.037Z,9.36
2017-04-24T01:09:03.540Z,9.28
2017-04-24T01:09:44.060Z,9.28
2017-04-24T01:10:24.580Z,9.43
2017-04-24T01:11:05.097Z,9.43
2017-04-24T01:11:45.617Z,9.38
2017-04-24T01:12:26.145Z,9.35
2017-04-24T01:13:06.677Z,9.36
2017-04-24T01:13:47.189Z,9.26
2017-04-24T01:14:27.707Z,9.28
2017-04-24T01:15:08.222Z,9.29
2017-04-24T01:15:48.740Z,9.31
2017-04-24T01:16:29.272Z,9.29
2017-04-24T01:17:09.791Z,9.2
2017-04-24T01:17:50.311Z,9.28
2017-04-24T01:18:30.844Z,9.24
2017-04-24T01:19:11.365Z,9.31
2017-04-24T01:19:51.896Z,9.18
2017-04-24T01:20:32.415Z,9.08
2017-04-24T01:21:12.928Z,9.08
2017-04-24T01:21:53.472Z,9.14
2017-04-24T01:22:33.984Z,9.11
2017-04-24T01:23:14.499Z,9.15
2017-04-24T01:23:55.013Z,9.05
2017-04-24T01:24:35.525Z,9.14
2017-04-24T01:25:16.051Z,9.08
2017-04-24T01:25:56.556Z,9.08
2017-04-24T01:26:37.072Z,9.14
2017-04-24T01:27:17.603Z,9.2
2017-04-24T01:27:58.121Z,9.17
2017-04-24T01:28:38.637Z,9.04
2017-04-24T01:29:19.153Z,9.11
2017-04-24T01:29:59.678Z,9.11
2017-04-24T01:30:40.201Z,9.15
2017-04-24T01:31:20.719Z,9.14
2017-04-24T01:32:01.245Z,9.1
2017-04-24T01:32:41.776Z,8.83
2017-04-24T01:33:22.297Z,8.95
2017-04-24T01:34:02.803Z,8.96
2017-04-24T01:34:43.321Z,8.96
2017-04-24T01:35:23.834Z,8.99
2017-04-24T01:36:04.348Z,9.01
2017-04-24T01:36:44.864Z,8.99
2017-04-24T01:37:25.391Z,8.99
2017-04-24T01:38:05.905Z,8.95
2017-04-24T01:38:46.424Z,8.94
2017-04-24T01:39:26.939Z,9.01
2017-04-24T01:40:07.460Z,8.96
2017-04-24T01:40:48.055Z,9.11
2017-04-24T01:41:28.571Z,9.05
2017-04-24T01:42:09.091Z,8.99
2017-04-24T01:42:49.604Z,8.96
2017-04-24T01:43:30.129Z,9.04
2017-04-24T01:44:10.640Z,9.04
2017-04-24T01:44:51.160Z,9.02
2017-04-24T01:45:31.675Z,9.04
2017-04-24T01:46:12.190Z,9.02
2017-04-24T01:46:52.718Z,8.99
2017-04-24T01:47:33.234Z,8.96
2017-04-24T01:48:13.771Z,9.01
2017-04-24T01:48:54.288Z,9.01
2017-04-24T01:49:34.801Z,9.08
2017-04-24T01:50:15.320Z,9.1
2017-04-24T01:50:55.832Z,9.11
2017-04-24T01:51:36.347Z,9.08
2017-04-24T01:52:16.875Z,9.13
2017-04-24T01:52:57.384Z,9.14
2017-04-24T01:53:37.914Z,9.11
2017-04-24T01:54:18.431Z,9.04
2017-04-24T01:54:58.944Z,9.13
2017-04-24T01:55:39.470Z,9.04
2017-04-24T01:56:20.021Z,9.01
2017-04-24T01:57:00.531Z,9.13
2017-04-24T01:57:41.050Z,9.04
2017-04-24T01:58:21.574Z,9.08
2017-04-24T01:59:02.087Z,9.1
2017-04-24T01:59:42.600Z,8.95
2017-04-24T02:00:23.115Z,8.83
2017-04-24T02:01:03.631Z,8.81
2017-04-24T02:01:44.155Z,8.81
2017-04-24T02:02:24.688Z,8.81
2017-04-24T02:03:05.197Z,8.76
2017-04-24T02:03:45.715Z,8.83
2017-04-24T02:04:26.258Z,8.84
2017-04-24T02:05:06.803Z,8.83
2017-04-24T02:05:47.331Z,8.86
2017-04-24T02:06:27.850Z,8.77
2017-04-24T02:07:08.367Z,8.95
2017-04-24T02:07:48.874Z,8.77
2017-04-24T02:08:29.394Z,8.84
2017-04-24T02:09:09.911Z,8.92
2017-04-24T02:09:50.425Z,8.89
2017-04-24T02:10:30.944Z,8.77
2017-04-24T02:11:11.455Z,8.92
2017-04-24T02:11:51.974Z,8.77
2017-04-24T02:12:32.488Z,8.79
2017-04-24T02:13:13.014Z,8.83
2017-04-24T02:13:53.529Z,8.81
2017-04-24T02:14:34.063Z,8.86
2017-04-24T02:15:14.580Z,8.86
2017-04-24T02:15:55.100Z,8.87
2017-04-24T02:16:35.612Z,8.95
2017-04-24T02:17:16.136Z,8.96
2017-04-24T02:17:56.656Z,8.87
2017-04-24T02:18:37.173Z,8.96
2017-04-24T02:19:17.682Z,8.96
2017-04-24T02:19:58.228Z,8.87
2017-04-24T02:20:38.738Z,8.81
2017-04-24T02:21:19.250Z,8.87
2017-04-24T02:21:59.769Z,8.86
2017-04-24T02:22:40.279Z,8.87
2017-04-24T02:23:20.808Z,8.87
2017-04-24T02:24:01.327Z,8.83
2017-04-24T02:24:41.854Z,8.91
2017-04-24T02:25:22.371Z,8.86
2017-04-24T02:26:02.903Z,8.8
2017-04-24T02:26:43.458Z,8.84
2017-04-24T02:27:23.973Z,8.89
2017-04-24T02:28:04.505Z,8.86
2017-04-24T02:28:45.028Z,8.84
2017-04-24T02:29:25.546Z,8.63
2017-04-24T02:30:06.095Z,8.62
2017-04-24T02:30:46.614Z,8.56
2017-04-24T02:31:27.138Z,8.48
2017-04-24T02:32:07.658Z,8.48
2017-04-24T02:32:48.170Z,8.58
2017-04-24T02:33:28.687Z,8.68
2017-04-24T02:34:09.199Z,8.61
2017-04-24T02:34:49.719Z,8.66
2017-04-24T02:35:30.240Z,8.73
2017-04-24T02:36:10.765Z,8.73
2017-04-24T02:36:51.285Z,8.63
2017-04-24T02:37:31.805Z,8.66
2017-04-24T02:38:12.325Z,8.63
2017-04-24T02:38:52.838Z,8.71
2017-04-24T02:39:33.356Z,8.79
2017-04-24T02:40:13.874Z,8.77
2017-04-24T02:40:54.397Z,8.7
2017-04-24T02:41:34.911Z,8.79
2017-04-24T02:42:15.423Z,8.76
2017-04-24T02:42:55.946Z,8.76
2017-04-24T02:43:36.469Z,8.79
2017-04-24T02:44:17.013Z,8.76
2017-04-24T02:44:57.509Z,8.79
2017-04-24T02:45:38.042Z,8.73
2017-04-24T02:46:18.535Z,8.65
2017-04-24T02:46:59.049Z,8.77
2017-04-24T02:47:39.567Z,8.79
2017-04-24T02:48:20.085Z,8.76
2017-04-24T02:49:00.620Z,8.71
2017-04-24T02:49:41.139Z,8.66
2017-04-24T02:50:21.652Z,8.63
2017-04-24T02:51:02.179Z,8.58
2017-04-24T02:51:42.714Z,8.47
2017-04-24T02:52:23.226Z,8.58
2017-04-24T02:53:03.759Z,8.56
2017-04-24T02:53:44.275Z,8.55
2017-04-24T02:54:24.793Z,8.56
2017-04-24T02:55:05.309Z,8.56
2017-04-24T02:55:45.828Z,8.61
2017-04-24T02:56:26.369Z,8.56
2017-04-24T02:57:06.892Z,8.65
2017-04-24T02:57:47.409Z,8.58
2017-04-24T02:58:27.927Z,8.52
2017-04-24T02:59:08.449Z,8.73
2017-04-24T02:59:48.970Z,8.55
2017-04-24T03:00:29.511Z,8.53
2017-04-24T03:01:10.033Z,8.59
2017-04-24T03:01:50.567Z,8.58
2017-04-24T03:02:31.070Z,8.56
2017-04-24T03:03:11.579Z,8.71
2017-04-24T03:03:52.084Z,8.56
2017-04-24T03:04:32.608Z,8.62
2017-04-24T03:05:13.133Z,8.5
2017-04-24T03:05:53.753Z,8.47
2017-04-24T03:06:34.267Z,8.52
2017-04-24T03:07:14.777Z,8.38
2017-04-24T03:07:55.299Z,8.47
2017-04-24T03:08:35.823Z,8.47
2017-04-24T03:09:16.346Z,8.53
2017-04-24T03:09:56.868Z,8.47
2017-04-24T03:10:37.390Z,8.56
2017-04-24T03:11:17.908Z,8.48
2017-04-24T03:11:58.446Z,8.53
2017-04-24T03:12:38.970Z,8.52
2017-04-24T03:13:19.483Z,8.56
2017-04-24T03:13:59.999Z,8.48
2017-04-24T03:14:40.541Z,8.45
2017-04-24T03:15:21.070Z,8.45
2017-04-24T03:16:01.584Z,8.53
2017-04-24T03:16:42.099Z,8.52
2017-04-24T03:17:22.616Z,8.36
2017-04-24T03:18:03.137Z,8.47
2017-04-24T03:18:43.656Z,8.44
2017-04-24T03:19:24.209Z,8.48
2017-04-24T03:20:04.756Z,8.36
2017-04-24T03:20:45.286Z,8.36
2017-04-24T03:21:25.803Z,8.36
2017-04-24T03:22:06.322Z,8.44
2017-04-24T03:22:46.845Z,8.38
2017-04-24T03:23:27.365Z,8.37
2017-04-24T03:24:07.894Z,8.43
2017-04-24T03:24:48.406Z,8.38
2017-04-24T03:25:28.923Z,8.41
2017-04-24T03:26:09.440Z,8.3
2017-04-24T03:26:49.978Z,8.43
2017-04-24T03:27:30.497Z,8.34
2017-04-24T03:28:11.013Z,8.37
2017-04-24T03:28:51.527Z,8.43
2017-04-24T03:29:32.049Z,8.38
2017-04-24T03:30:12.575Z,8.37
2017-04-24T03:30:53.087Z,8.43
2017-04-24T03:31:33.622Z,8.44
2017-04-24T03:32:14.443Z,8.33
2017-04-24T03:32:55.011Z,8.34
2017-04-24T03:33:35.558Z,8.37
2017-04-24T03:34:16.051Z,8.34
2017-04-24T03:34:56.572Z,8.43
2017-04-24T03:35:37.108Z,8.4
2017-04-24T03:36:17.623Z,8.37
2017-04-24T03:36:58.144Z,8.48
2017-04-24T03:37:38.664Z,8.34
2017-04-24T03:38:19.172Z,8.33
2017-04-24T03:39:00.227Z,8.33
2017-04-24T03:39:40.856Z,8.41
2017-04-24T03:40:21.494Z,8.29
2017-04-24T03:41:02.008Z,8.3
2017-04-24T03:41:42.531Z,8.33
2017-04-24T03:42:23.038Z,8.38
2017-04-24T03:43:03.616Z,8.3
2017-04-24T03:43:44.793Z,8.34
2017-04-24T03:44:25.266Z,8.41
2017-04-24T03:45:05.213Z,8.29
2017-04-24T03:45:46.026Z,8.29
2017-04-24T03:46:26.520Z,8.19
2017-04-24T03:47:07.043Z,8.11
2017-04-24T03:47:47.555Z,8.22
2017-04-24T03:48:28.067Z,8.25
2017-04-24T03:49:08.580Z,8.22
2017-04-24T03:49:49.100Z,8.23
2017-04-24T03:50:29.608Z,8.22
2017-04-24T03:51:10.281Z,8.23
2017-04-24T03:51:50.801Z,8.26
2017-04-24T03:52:31.306Z,8.26
2017-04-24T03:53:11.817Z,8.29
2017-04-24T03:53:52.335Z,8.25
2017-04-24T03:54:32.859Z,8.26
2017-04-24T03:55:13.375Z,8.33
2017-04-24T03:55:53.894Z,8.37
2017-04-24T03:56:34.551Z,8.29
2017-04-24T03:57:15.110Z,8.22
2017-04-24T03:57:55.658Z,8.25
2017-04-24T03:58:36.494Z,8.29
2017-04-24T03:59:16.887Z,8.28
2017-04-24T03:59:57.402Z,8.19
2017-04-24T04:00:37.921Z,8.23
2017-04-24T04:01:18.433Z,8.26
2017-04-24T04:01:58.954Z,8.23
2017-04-24T04:02:39.462Z,8.25
2017-04-24T04:03:20.400Z,8.26
2017-04-24T04:04:01.032Z,8.29
2017-04-24T04:04:41.574Z,8.36
2017-04-24T04:05:22.077Z,8.26
2017-04-24T04:06:02.595Z,8.3
2017-04-24T04:06:43.115Z,8.25
2017-04-24T04:07:23.632Z,8.26
2017-04-24T04:08:04.152Z,8.34
2017-04-24T04:08:44.885Z,8.26
2017-04-24T04:09:25.709Z,8.25
2017-04-24T04:10:06.050Z,8.25
2017-04-24T04:10:46.590Z,8.26
2017-04-24T04:11:27.111Z,8.25
2017-04-24T04:12:07.627Z,8.2
2017-04-24T04:12:48.140Z,8.26
2017-04-24T04:13:28.660Z,8.25
2017-04-24T04:14:09.184Z,8.26
2017-04-24T04:14:49.918Z,8.3
2017-04-24T04:15:30.426Z,8.29
2017-04-24T04:16:11.854Z,8.26
2017-04-24T04:16:52.396Z,8.33
2017-04-24T04:17:33.029Z,8.28
2017-04-24T04:18:13.552Z,8.28
2017-04-24T04:18:54.081Z,8.37
2017-04-24T04:19:34.770Z,8.23
2017-04-24T04:20:15.588Z,8.3
2017-04-24T04:20:56.107Z,8.26
2017-04-24T04:22:54.461Z,8.26
2017-04-24T04:23:34.980Z,8.28
2017-04-24T04:24:15.493Z,8.28
2017-04-24T04:24:56.014Z,8.3
2017-04-24T04:25:36.532Z,8.26
2017-04-24T04:26:17.040Z,8.15
2017-04-24T04:26:57.546Z,8.08
2017-04-24T04:27:38.074Z,8.12
2017-04-24T04:28:18.589Z,8.18
2017-04-24T04:28:59.131Z,8.15
2017-04-24T04:29:39.661Z,8.19
2017-04-24T04:30:20.186Z,8.26
2017-04-24T04:31:00.719Z,8.22
2017-04-24T04:31:41.240Z,8.11
2017-04-24T04:32:21.756Z,8.04
2017-04-24T04:33:02.262Z,8
2017-04-24T04:33:42.776Z,8.11
2017-04-24T04:34:23.302Z,8.19
2017-04-24T04:35:03.812Z,8.16
2017-04-24T04:37:02.082Z,8.19
2017-04-24T04:37:42.597Z,8.23
2017-04-24T04:38:23.187Z,8.22
2017-04-24T04:39:03.647Z,8.08
2017-04-24T04:39:44.163Z,8.11
2017-04-24T04:40:24.675Z,8.26
2017-04-24T04:41:05.202Z,8.16
2017-04-24T04:41:45.716Z,8.22
2017-04-24T04:42:26.229Z,8.15
2017-04-24T04:43:06.760Z,8.07
2017-04-24T04:43:47.273Z,7.95
2017-04-24T04:44:27.791Z,8.04
2017-04-24T04:45:08.304Z,8.08
2017-04-24T04:45:48.845Z,8.12
2017-04-24T04:46:29.361Z,8.16
2017-04-24T04:47:09.879Z,8.15
2017-04-24T04:47:50.398Z,8.2
2017-04-24T04:48:30.910Z,8.29
2017-04-24T04:49:11.426Z,8.25
2017-04-24T04:49:51.962Z,8.29
2017-04-24T04:50:32.484Z,8.19
2017-04-24T04:51:12.988Z,8.23
2017-04-24T04:51:53.520Z,8.28
2017-04-24T04:52:34.031Z,8.18
2017-04-24T04:53:14.548Z,8.18
2017-04-24T04:53:55.067Z,8.29
2017-04-24T04:54:35.579Z,8.34
2017-04-24T04:55:16.091Z,8.34
2017-04-24T04:55:56.613Z,8.37
2017-04-24T04:56:37.126Z,8.44
2017-04-24T04:57:17.654Z,8.45
2017-04-24T04:57:58.166Z,8.4
2017-04-24T04:58:38.705Z,8.44
2017-04-24T04:59:19.229Z,8.48
2017-04-24T04:59:59.744Z,8.47
2017-04-24T05:00:40.301Z,8.62
2017-04-24T05:01:20.816Z,8.56
2017-04-24T05:02:01.333Z,8.65
2017-04-24T05:02:41.844Z,8.63
2017-04-24T05:03:22.374Z,8.71
2017-04-24T05:04:02.893Z,8.63
2017-04-24T05:04:43.411Z,8.62
2017-04-24T05:05:23.945Z,8.62
2017-04-24T05:06:04.462Z,8.74
2017-04-24T05:06:44.983Z,8.68
2017-04-24T05:07:25.498Z,8.77
2017-04-24T05:08:06.018Z,8.77
2017-04-24T05:08:46.540Z,8.77
2017-04-24T05:09:27.066Z,8.86
2017-04-24T05:10:07.588Z,8.79
2017-04-24T05:10:48.104Z,8.71
2017-04-24T05:11:28.618Z,8.79
2017-04-24T05:12:09.139Z,8.84
2017-04-24T05:12:49.663Z,8.84
2017-04-24T05:13:30.185Z,8.89
2017-04-24T05:14:10.703Z,8.79
2017-04-24T05:14:51.245Z,8.76
2017-04-24T05:15:31.741Z,8.66
2017-04-24T05:16:12.262Z,8.58
2017-04-24T05:16:52.767Z,8.62
2017-04-24T05:17:33.285Z,8.63
2017-04-24T05:18:13.786Z,8.71
2017-04-24T05:18:54.302Z,8.7
2017-04-24T05:19:34.807Z,8.7
2017-04-24T05:20:15.311Z,8.62
2017-04-24T05:20:55.836Z,8.56
2017-04-24T05:21:36.358Z,8.66
2017-04-24T05:22:16.861Z,8.53
2017-04-24T05:22:57.438Z,8.59
2017-04-24T05:23:37.917Z,8.7
2017-04-24T05:24:18.479Z,8.77
2017-04-24T05:24:58.998Z,8.7
2017-04-24T05:25:39.524Z,8.7
2017-04-24T05:26:20.044Z,8.65
2017-04-24T05:27:00.571Z,8.66
2017-04-24T05:27:41.135Z,8.77
2017-04-24T05:28:21.657Z,8.74
2017-04-24T05:29:02.176Z,8.77
2017-04-24T05:29:42.687Z,8.73
2017-04-24T05:30:23.216Z,8.83
2017-04-24T05:31:03.733Z,8.92
2017-04-24T05:31:44.462Z,8.98
2017-04-24T05:32:24.972Z,8.87
2017-04-24T05:33:05.533Z,8.96
2017-04-24T05:33:46.048Z,9.01
2017-04-24T05:34:26.569Z,9.08
2017-04-24T05:35:07.089Z,9.15
2017-04-24T05:35:47.889Z,9.1
2017-04-24T05:36:28.418Z,9.02
2017-04-24T05:37:08.934Z,9.04
2017-04-24T05:37:49.466Z,9.1
2017-04-24T05:38:29.951Z,9.29
2017-04-24T05:39:10.470Z,9.28
2017-04-24T05:39:51.041Z,9.32
2017-04-24T05:40:31.659Z,9.42
2017-04-24T05:41:12.194Z,9.5
2017-04-24T05:41:52.710Z,9.57
2017-04-24T05:42:33.237Z,9.69
2017-04-24T05:43:13.739Z,9.69
2017-04-24T05:43:54.257Z,9.74
2017-04-24T05:44:34.763Z,9.81
2017-04-24T05:45:15.305Z,9.74
2017-04-24T05:45:55.826Z,9.72
2017-04-24T05:46:36.338Z,9.57
2017-04-24T05:47:16.854Z,9.72
2017-04-24T05:47:57.386Z,9.65
2017-04-24T05:48:37.902Z,9.69
2017-04-24T05:49:18.417Z,9.76
2017-04-24T05:49:58.959Z,9.74
2017-04-24T05:50:39.476Z,9.69
2017-04-24T05:51:19.993Z,9.75
2017-04-24T05:52:00.504Z,9.79
2017-04-24T05:52:41.034Z,9.61
2017-04-24T05:53:21.553Z,9.4
2017-04-24T05:54:02.051Z,9.28
2017-04-24T05:54:42.600Z,9.1
2017-04-24T05:55:23.168Z,8.96
2017-04-24T05:56:03.788Z,8.95
2017-04-24T05:56:44.211Z,8.87
2017-04-24T05:57:24.646Z,8.92
2017-04-24T05:58:05.166Z,8.98
2017-04-24T05:58:45.675Z,9.04
2017-04-24T05:59:26.197Z,9.14
2017-04-24T06:00:06.729Z,9.05
2017-04-24T06:00:47.248Z,9.11
2017-04-24T06:01:27.779Z,9.08
2017-04-24T06:02:08.299Z,9.01
2017-04-24T06:02:48.783Z,9.04
2017-04-24T06:03:29.335Z,9.17
2017-04-24T06:04:09.835Z,9.29
2017-04-24T06:04:50.400Z,9.32
2017-04-24T06:05:30.914Z,9.4
2017-04-24T06:06:11.462Z,9.54
2017-04-24T06:07:49.323Z,9.56
2017-04-24T06:08:29.854Z,9.6
2017-04-24T06:09:10.372Z,9.51
2017-04-24T06:09:50.887Z,9.36
2017-04-24T06:10:31.435Z,9.32
2017-04-24T06:11:11.958Z,9.35
2017-04-24T06:11:52.486Z,9.46
2017-04-24T06:12:33.001Z,9.51
2017-04-24T06:13:13.529Z,9.6
2017-04-24T06:13:54.051Z,9.64
2017-04-24T06:14:34.567Z,9.69
2017-04-24T06:15:15.093Z,9.83
2017-04-24T06:15:55.632Z,9.76
2017-04-24T06:16:36.148Z,9.89
2017-04-24T06:17:16.676Z,9.99
2017-04-24T06:17:57.198Z,10.09
2017-04-24T06:18:37.712Z,10.09
2017-04-24T06:19:18.229Z,10.08
2017-04-24T06:19:58.868Z,10.18
2017-04-24T06:20:39.333Z,10.18
2017-04-24T06:21:19.842Z,10.08
2017-04-24T06:22:00.359Z,10.09
2017-04-24T06:22:40.885Z,10.15
2017-04-24T06:23:21.392Z,10.25
2017-04-24T06:24:02.001Z,10.3
2017-04-24T06:24:42.473Z,10.32
2017-04-24T06:25:23.057Z,10.26
2017-04-24T06:26:03.559Z,10.4
2017-04-24T06:26:44.213Z,10.26
2017-04-24T06:27:24.692Z,10.27
2017-04-24T06:28:05.222Z,10.17
2017-04-24T06:28:46.536Z,10.23
2017-04-24T06:29:27.077Z,10.3
2017-04-24T06:30:08.010Z,10.3
2017-04-24T06:30:48.392Z,10.3
2017-04-24T06:31:29.015Z,10.67
2017-04-24T06:32:09.536Z,10.55
2017-04-24T06:32:50.064Z,10.55
2017-04-24T06:33:30.564Z,10.53
2017-04-24T06:34:11.190Z,10.48
2017-04-24T06:34:51.709Z,10.45
2017-04-24T06:35:32.217Z,10.59
2017-04-24T06:36:12.746Z,10.51
2017-04-24T06:38:00.808Z,11.02
2017-04-24T06:38:41.308Z,11.17
2017-04-24T06:39:21.852Z,11.07
2017-04-24T06:40:02.576Z,11.22
2017-04-24T06:40:43.356Z,11.42
2017-04-24T06:41:23.871Z,11.39
2017-04-24T06:42:04.398Z,11.58
2017-04-24T06:42:44.938Z,11.61
2017-04-24T06:44:38.323Z,11.79
2017-04-24T06:45:18.859Z,12.04
2017-04-24T06:47:11.937Z,12.46
2017-04-24T06:47:52.467Z,12.46
2017-04-24T06:48:33.003Z,12.38
2017-04-24T06:49:13.839Z,12.39
2017-04-24T06:49:54.170Z,12.52
2017-04-24T06:50:34.665Z,12.54
2017-04-24T06:51:15.575Z,12.68
2017-04-24T06:51:56.180Z,12.67
2017-04-24T06:52:36.630Z,12.72
2017-04-24T06:53:17.141Z,12.83
2017-04-24T06:53:57.678Z,13.14
2017-04-24T06:54:38.207Z,13.07
2017-04-24T06:55:18.883Z,13.01
2017-04-24T06:55:59.343Z,12.97
2017-04-24T06:56:39.855Z,12.92
2017-04-24T06:58:18.532Z,13.22
2017-04-24T06:58:59.101Z,13.41
2017-04-24T06:59:39.616Z,13.3
2017-04-24T07:00:20.329Z,13.45
2017-04-24T07:01:00.836Z,13.57
2017-04-24T07:01:41.356Z,13.55
2017-04-24T07:02:22.072Z,13.46
2017-04-24T07:03:02.557Z,13.49
2017-04-24T07:03:43.070Z,13.51
2017-04-24T07:04:23.576Z,13.51
2017-04-24T07:05:04.091Z,13.57
2017-04-24T07:05:44.614Z,13.59
2017-04-24T07:06:25.128Z,13.73
2017-04-24T07:07:05.652Z,13.69
2017-04-24T07:07:46.167Z,13.71
2017-04-24T07:08:26.663Z,13.81
2017-04-24T07:09:07.186Z,13.89
2017-04-24T07:09:47.711Z,14
2017-04-24T07:10:28.229Z,14.04
2017-04-24T07:11:08.743Z,13.91
2017-04-24T07:11:49.268Z,13.99
2017-04-24T07:12:29.780Z,14.17
2017-04-24T07:13:10.303Z,14.17
2017-04-24T07:13:50.813Z,14.2
2017-04-24T07:14:31.383Z,14
2017-04-24T07:15:11.902Z,14.21
2017-04-24T07:15:52.418Z,14.18
2017-04-24T07:16:32.940Z,14.18
2017-04-24T07:17:13.442Z,14.2
2017-04-24T07:17:53.958Z,14.25
2017-04-24T07:18:34.482Z,14.29
2017-04-24T07:19:15.004Z,14.36
2017-04-24T07:19:55.552Z,14.28
2017-04-24T07:20:36.054Z,14.37
2017-04-24T07:21:16.581Z,14.2
2017-04-24T07:21:57.090Z,14.33
2017-04-24T07:22:37.612Z,14.27
2017-04-24T07:23:18.134Z,14.29
2017-04-24T07:23:58.661Z,14.21
2017-04-24T07:24:39.211Z,14.15
2017-04-24T07:25:19.727Z,14.17
2017-04-24T07:26:00.251Z,14.25
2017-04-24T07:26:40.763Z,14.24
2017-04-24T07:27:21.298Z,14.29
2017-04-24T07:28:01.812Z,14.32
2017-04-24T07:28:42.325Z,14.25
2017-04-24T07:29:22.870Z,14.25
2017-04-24T07:30:03.385Z,14.36
2017-04-24T07:30:43.901Z,14.37
2017-04-24T07:31:24.424Z,14.36
2017-04-24T07:32:04.934Z,14.35
2017-04-24T07:32:45.449Z,14.25
2017-04-24T07:33:25.976Z,14.18
2017-04-24T07:34:06.509Z,14.18
2017-04-24T07:34:47.024Z,14.15
2017-04-24T07:35:27.544Z,14.07
2017-04-24T07:36:08.077Z,14.17
2017-04-24T07:36:48.574Z,14.15
2017-04-24T07:37:29.114Z,14.09
2017-04-24T07:38:09.611Z,14.14
2017-04-24T07:38:50.124Z,14.17
2017-04-24T07:39:30.642Z,14.2
2017-04-24T07:40:11.163Z,14.32
2017-04-24T07:40:51.682Z,14.15
2017-04-24T07:41:32.200Z,14.24
2017-04-24T07:42:12.742Z,14.37
2017-04-24T07:42:53.264Z,14.55
2017-04-24T07:43:33.783Z,14.52
2017-04-24T07:44:14.299Z,14.64
2017-04-24T07:44:54.827Z,14.57
2017-04-24T07:45:35.369Z,14.65
2017-04-24T07:46:15.892Z,14.8
2017-04-24T07:46:56.406Z,14.68
2017-04-24T07:47:36.923Z,14.69
2017-04-24T07:48:17.440Z,14.86
2017-04-24T07:48:57.960Z,14.86
2017-04-24T07:49:38.473Z,14.86
2017-04-24T07:50:18.999Z,14.75
2017-04-24T07:50:59.527Z,14.73
2017-04-24T07:51:40.046Z,14.65
2017-04-24T07:52:20.594Z,14.64
2017-04-24T07:53:01.108Z,14.68
2017-04-24T07:53:41.645Z,14.72
2017-04-24T07:54:22.162Z,14.72
2017-04-24T07:55:02.692Z,14.47
2017-04-24T07:55:43.234Z,14.57
2017-04-24T07:56:23.743Z,14.64
2017-04-24T07:57:04.266Z,14.52
2017-04-24T07:57:44.777Z,14.46
2017-04-24T07:58:25.290Z,14.47
2017-04-24T07:59:05.819Z,14.69
2017-04-24T07:59:46.334Z,14.78
2017-04-24T08:00:26.853Z,14.75
2017-04-24T08:01:07.366Z,14.81
2017-04-24T08:01:47.887Z,14.65
2017-04-24T08:02:28.407Z,14.6
2017-04-24T08:03:08.927Z,14.58
2017-04-24T08:03:49.439Z,14.7
2017-04-24T08:04:29.963Z,14.75
2017-04-24T08:05:10.501Z,14.7
2017-04-24T08:05:51.024Z,14.8
2017-04-24T08:06:31.543Z,14.81
2017-04-24T08:07:12.064Z,14.94
2017-04-24T08:07:52.588Z,15.01
2017-04-24T08:08:33.121Z,15.06
2017-04-24T08:09:13.647Z,14.94
2017-04-24T08:09:54.161Z,14.88
2017-04-24T08:10:34.684Z,15.02
2017-04-24T08:11:15.196Z,14.81
2017-04-24T08:11:55.719Z,14.81
2017-04-24T08:12:36.222Z,14.72
2017-04-24T08:13:16.763Z,14.88
2017-04-24T08:13:57.265Z,14.86
2017-04-24T08:14:37.788Z,14.81
2017-04-24T08:15:18.305Z,14.88
2017-04-24T08:15:58.827Z,14.84
2017-04-24T08:16:39.358Z,14.78
2017-04-24T08:17:19.875Z,14.75
2017-04-24T08:18:00.409Z,14.68
2017-04-24T08:18:40.925Z,14.73
2017-04-24T08:19:21.447Z,14.72
2017-04-24T08:20:01.979Z,14.69
2017-04-24T08:20:42.488Z,14.64
2017-04-24T08:21:23.015Z,14.73
2017-04-24T08:22:03.515Z,14.7
2017-04-24T08:22:44.037Z,14.77
2017-04-24T08:23:24.578Z,14.69
2017-04-24T08:24:05.085Z,14.72
2017-04-24T08:24:45.606Z,14.77
2017-04-24T08:25:26.127Z,14.7
2017-04-24T08:26:06.651Z,14.81
2017-04-24T08:26:47.173Z,14.88
2017-04-24T08:27:27.698Z,14.86
2017-04-24T08:28:08.209Z,14.84
2017-04-24T08:28:48.738Z,14.84
2017-04-24T08:29:29.260Z,14.84
2017-04-24T08:30:09.784Z,14.95
2017-04-24T08:30:50.295Z,14.86
2017-04-24T08:31:30.829Z,14.83
2017-04-24T08:32:11.343Z,14.81
2017-04-24T08:32:51.881Z,14.89
2017-04-24T08:33:32.405Z,14.86
2017-04-24T08:34:12.921Z,14.94
2017-04-24T08:34:53.462Z,14.88
2017-04-24T08:35:33.994Z,14.95
2017-04-24T08:36:14.522Z,14.81
2017-04-24T08:36:55.044Z,14.77
2017-04-24T08:37:35.568Z,14.75
2017-04-24T08:38:16.086Z,14.77
2017-04-24T08:38:56.607Z,14.8
2017-04-24T08:39:37.133Z,14.86
2017-04-24T08:40:17.652Z,14.88
2017-04-24T08:40:58.170Z,15.02
2017-04-24T08:41:38.696Z,14.99
2017-04-24T08:42:19.238Z,14.89
2017-04-24T08:42:59.743Z,14.92
2017-04-24T08:43:40.263Z,14.92
2017-04-24T08:44:20.825Z,14.99
2017-04-24T08:45:01.310Z,14.89
2017-04-24T08:45:41.827Z,14.83
2017-04-24T08:46:22.345Z,14.81
2017-04-24T08:48:15.444Z,14.8
2017-04-24T08:48:55.968Z,14.81
2017-04-24T08:49:36.499Z,14.86
2017-04-24T08:50:17.024Z,14.95
2017-04-24T08:50:57.539Z,15.07
2017-04-24T08:51:38.064Z,15.06
2017-04-24T08:52:18.581Z,15.03
2017-04-24T08:52:59.095Z,15.01
2017-04-24T08:53:39.611Z,14.83
2017-04-24T08:54:20.127Z,14.77
2017-04-24T08:55:00.649Z,14.55
2017-04-24T08:55:41.167Z,14.51
2017-04-24T08:56:21.712Z,14.62
2017-04-24T08:57:02.209Z,14.8
2017-04-24T08:57:42.729Z,14.88
2017-04-24T08:58:23.262Z,14.89
2017-04-24T08:59:03.771Z,15.09
2017-04-24T08:59:44.294Z,15.07
2017-04-24T09:01:37.371Z,15.06
2017-04-24T09:02:17.879Z,15.17
2017-04-24T09:02:58.397Z,15.1
2017-04-24T09:03:38.928Z,15.14
2017-04-24T09:04:19.447Z,15.06
2017-04-24T09:04:59.959Z,15.06
2017-04-24T09:05:40.510Z,15.06